sensor_id;sensor_type;location;lat;lon;timestamp;pressure;altitude;pressure_sealevel;temperature;humidity
54022;BME280;39936;51.058;17.220;2024-01-10T00:00:46;103763.30;;;-13.56;95.80
54022;BME280;39936;51.058;17.220;2024-01-10T00:04:29;103756.88;;;-13.58;95.73
54022;BME280;39936;51.058;17.220;2024-01-10T00:07:51;103763.32;;;-13.58;95.77
54022;BME280;39936;51.058;17.220;2024-01-10T00:11:26;103761.09;;;-13.63;95.90
54022;BME280;39936;51.058;17.220;2024-01-10T00:15:27;103754.16;;;-13.59;95.96
54022;BME280;39936;51.058;17.220;2024-01-10T00:19:16;103714.11;;;-13.94;96.65
54022;BME280;39936;51.058;17.220;2024-01-10T00:22:39;103762.57;;;-13.88;97.87
54022;BME280;39936;51.058;17.220;2024-01-10T00:26:05;103764.38;;;-13.93;99.33
54022;BME280;39936;51.058;17.220;2024-01-10T00:29:22;103764.21;;;-13.98;100.00
54022;BME280;39936;51.058;17.220;2024-01-10T00:33:32;103762.18;;;-14.03;100.00
54022;BME280;39936;51.058;17.220;2024-01-10T00:36:50;103760.22;;;-14.01;100.00
54022;BME280;39936;51.058;17.220;2024-01-10T00:40:23;103752.73;;;-13.93;100.00
54022;BME280;39936;51.058;17.220;2024-01-10T00:43:45;103754.19;;;-13.91;100.00
54022;BME280;39936;51.058;17.220;2024-01-10T00:47:07;103749.98;;;-13.98;100.00
54022;BME280;39936;51.058;17.220;2024-01-10T00:50:30;103747.00;;;-13.95;100.00
54022;BME280;39936;51.058;17.220;2024-01-10T00:53:52;103738.91;;;-13.91;100.00
54022;BME280;39936;51.058;17.220;2024-01-10T00:57:50;103747.22;;;-13.96;100.00
54022;BME280;39936;51.058;17.220;2024-01-10T01:01:58;103750.41;;;-13.99;100.00
54022;BME280;39936;51.058;17.220;2024-01-10T01:05:54;103756.77;;;-14.12;100.00
54022;BME280;39936;51.058;17.220;2024-01-10T01:09:14;103762.71;;;-14.24;100.00
54022;BME280;39936;51.058;17.220;2024-01-10T01:13:01;103771.89;;;-14.21;100.00
54022;BME280;39936;51.058;17.220;2024-01-10T01:16:21;103768.98;;;-14.24;100.00
54022;BME280;39936;51.058;17.220;2024-01-10T01:19:41;103767.59;;;-14.23;100.00
54022;BME280;39936;51.058;17.220;2024-01-10T01:23:08;103763.91;;;-14.28;100.00
54022;BME280;39936;51.058;17.220;2024-01-10T01:26:55;103767.42;;;-14.30;100.00
54022;BME280;39936;51.058;17.220;2024-01-10T01:30:16;103753.17;;;-14.29;100.00
54022;BME280;39936;51.058;17.220;2024-01-10T01:33:41;103751.83;;;-14.22;100.00
54022;BME280;39936;51.058;17.220;2024-01-10T01:37:05;103748.76;;;-14.31;100.00
54022;BME280;39936;51.058;17.220;2024-01-10T01:40:27;103753.78;;;-14.32;100.00
54022;BME280;39936;51.058;17.220;2024-01-10T01:43:45;103754.64;;;-14.32;100.00
54022;BME280;39936;51.058;17.220;2024-01-10T01:47:05;103758.46;;;-14.36;100.00
54022;BME280;39936;51.058;17.220;2024-01-10T01:50:23;103750.48;;;-14.38;100.00
54022;BME280;39936;51.058;17.220;2024-01-10T01:53:50;103744.99;;;-14.39;100.00
54022;BME280;39936;51.058;17.220;2024-01-10T01:57:13;103701.97;;;-14.66;100.00
54022;BME280;39936;51.058;17.220;2024-01-10T02:00:36;103748.87;;;-14.38;100.00
54022;BME280;39936;51.058;17.220;2024-01-10T02:03:55;103749.06;;;-14.36;100.00
54022;BME280;39936;51.058;17.220;2024-01-10T02:07:18;103699.84;;;-14.63;100.00
54022;BME280;39936;51.058;17.220;2024-01-10T02:10:46;103737.50;;;-14.37;100.00
54022;BME280;39936;51.058;17.220;2024-01-10T02:14:09;103737.93;;;-14.39;100.00
54022;BME280;39936;51.058;17.220;2024-01-10T02:17:48;103744.97;;;-14.31;100.00
54022;BME280;39936;51.058;17.220;2024-01-10T02:21:06;103740.76;;;-14.30;100.00
54022;BME280;39936;51.058;17.220;2024-01-10T02:24:24;103725.94;;;-14.36;100.00
54022;BME280;39936;51.058;17.220;2024-01-10T02:27:39;103727.83;;;-14.29;100.00
54022;BME280;39936;51.058;17.220;2024-01-10T02:30:55;103725.28;;;-14.28;100.00
54022;BME280;39936;51.058;17.220;2024-01-10T02:34:30;103725.09;;;-14.30;100.00
54022;BME280;39936;51.058;17.220;2024-01-10T02:37:56;103721.50;;;-14.33;100.00
54022;BME280;39936;51.058;17.220;2024-01-10T02:41:22;103729.19;;;-14.33;100.00
54022;BME280;39936;51.058;17.220;2024-01-10T02:44:41;103728.43;;;-14.33;100.00
54022;BME280;39936;51.058;17.220;2024-01-10T02:48:08;103687.02;;;-14.55;100.00
54022;BME280;39936;51.058;17.220;2024-01-10T02:51:54;103696.23;;;-14.39;100.00
54022;BME280;39936;51.058;17.220;2024-01-10T02:55:23;103711.61;;;-14.14;100.00
54022;BME280;39936;51.058;17.220;2024-01-10T02:58:50;103694.55;;;-14.11;100.00
54022;BME280;39936;51.058;17.220;2024-01-10T03:02:17;103696.63;;;-14.05;100.00
54022;BME280;39936;51.058;17.220;2024-01-10T03:05:40;103700.17;;;-14.01;100.00
54022;BME280;39936;51.058;17.220;2024-01-10T03:09:07;103680.41;;;-14.19;100.00
54022;BME280;39936;51.058;17.220;2024-01-10T03:12:32;103713.07;;;-14.11;100.00
54022;BME280;39936;51.058;17.220;2024-01-10T03:15:57;103718.27;;;-14.25;100.00
54022;BME280;39936;51.058;17.220;2024-01-10T03:19:26;103727.10;;;-14.39;100.00
54022;BME280;39936;51.058;17.220;2024-01-10T03:22:48;103728.98;;;-14.43;100.00
54022;BME280;39936;51.058;17.220;2024-01-10T03:26:46;103722.35;;;-14.56;100.00
54022;BME280;39936;51.058;17.220;2024-01-10T03:30:02;103724.83;;;-14.55;100.00
54022;BME280;39936;51.058;17.220;2024-01-10T03:33:20;103725.28;;;-14.48;100.00
54022;BME280;39936;51.058;17.220;2024-01-10T03:36:38;103722.07;;;-14.42;100.00
54022;BME280;39936;51.058;17.220;2024-01-10T03:44:00;103717.14;;;-14.29;100.00
54022;BME280;39936;51.058;17.220;2024-01-10T03:47:38;103719.62;;;-14.25;100.00
54022;BME280;39936;51.058;17.220;2024-01-10T03:51:30;103699.12;;;-14.42;100.00
54022;BME280;39936;51.058;17.220;2024-01-10T03:55:26;103705.69;;;-14.26;100.00
54022;BME280;39936;51.058;17.220;2024-01-10T03:58:56;103701.30;;;-14.26;100.00
54022;BME280;39936;51.058;17.220;2024-01-10T04:02:17;103658.20;;;-14.51;99.94
54022;BME280;39936;51.058;17.220;2024-01-10T04:06:03;103703.50;;;-14.31;99.78
54022;BME280;39936;51.058;17.220;2024-01-10T04:09:25;103663.49;;;-14.51;99.63
54022;BME280;39936;51.058;17.220;2024-01-10T04:12:47;103686.30;;;-14.30;99.50
54022;BME280;39936;51.058;17.220;2024-01-10T04:16:34;103682.62;;;-14.31;99.31
54022;BME280;39936;51.058;17.220;2024-01-10T04:19:55;103687.22;;;-14.34;99.18
54022;BME280;39936;51.058;17.220;2024-01-10T04:23:45;103687.20;;;-14.36;99.08
54022;BME280;39936;51.058;17.220;2024-01-10T04:27:25;103685.31;;;-14.38;98.96
54022;BME280;39936;51.058;17.220;2024-01-10T04:30:49;103687.35;;;-14.47;98.85
54022;BME280;39936;51.058;17.220;2024-01-10T04:38:36;103689.80;;;-14.70;98.83
54022;BME280;39936;51.058;17.220;2024-01-10T04:41:54;103691.14;;;-14.75;99.24
54022;BME280;39936;51.058;17.220;2024-01-10T04:45:49;103688.63;;;-14.80;99.61
54022;BME280;39936;51.058;17.220;2024-01-10T04:49:04;103684.55;;;-14.72;99.95
54022;BME280;39936;51.058;17.220;2024-01-10T04:53:04;103662.35;;;-14.84;99.98
54022;BME280;39936;51.058;17.220;2024-01-10T05:00:16;103685.38;;;-14.80;100.00
54022;BME280;39936;51.058;17.220;2024-01-10T05:03:39;103694.38;;;-14.76;100.00
54022;BME280;39936;51.058;17.220;2024-01-10T05:07:12;103689.33;;;-14.74;100.00
54022;BME280;39936;51.058;17.220;2024-01-10T05:10:54;103693.86;;;-14.81;100.00
54022;BME280;39936;51.058;17.220;2024-01-10T05:14:37;103689.93;;;-14.79;100.00
54022;BME280;39936;51.058;17.220;2024-01-10T05:18:19;103695.34;;;-14.90;100.00
54022;BME280;39936;51.058;17.220;2024-01-10T05:21:49;103709.03;;;-14.92;100.00
54022;BME280;39936;51.058;17.220;2024-01-10T05:25:08;103706.55;;;-14.95;100.00
54022;BME280;39936;51.058;17.220;2024-01-10T05:29:14;103701.21;;;-14.97;100.00
54022;BME280;39936;51.058;17.220;2024-01-10T05:32:58;103708.40;;;-14.98;100.00
54022;BME280;39936;51.058;17.220;2024-01-10T05:36:38;103699.05;;;-15.02;100.00
54022;BME280;39936;51.058;17.220;2024-01-10T05:40:07;103706.20;;;-14.96;100.00
54022;BME280;39936;51.058;17.220;2024-01-10T05:43:47;103702.52;;;-14.93;100.00
54022;BME280;39936;51.058;17.220;2024-01-10T05:47:28;103698.48;;;-14.95;100.00
54022;BME280;39936;51.058;17.220;2024-01-10T05:50:58;103698.14;;;-14.95;100.00
54022;BME280;39936;51.058;17.220;2024-01-10T05:54:34;103692.84;;;-14.94;100.00
54022;BME280;39936;51.058;17.220;2024-01-10T05:58:10;103691.75;;;-14.92;100.00
54022;BME280;39936;51.058;17.220;2024-01-10T06:02:10;103650.61;;;-15.18;100.00
54022;BME280;39936;51.058;17.220;2024-01-10T06:06:05;103691.05;;;-14.90;100.00
54022;BME280;39936;51.058;17.220;2024-01-10T06:09:19;103699.66;;;-14.84;100.00
54022;BME280;39936;51.058;17.220;2024-01-10T06:13:10;103705.23;;;-14.81;100.00
54022;BME280;39936;51.058;17.220;2024-01-10T06:16:48;103700.80;;;-14.90;100.00
54022;BME280;39936;51.058;17.220;2024-01-10T06:20:08;103709.16;;;-14.97;100.00
54022;BME280;39936;51.058;17.220;2024-01-10T06:23:34;103706.30;;;-14.93;100.00
54022;BME280;39936;51.058;17.220;2024-01-10T06:27:00;103709.46;;;-14.91;100.00
54022;BME280;39936;51.058;17.220;2024-01-10T06:30:25;103710.02;;;-14.98;100.00
54022;BME280;39936;51.058;17.220;2024-01-10T06:33:50;103698.98;;;-14.94;100.00
54022;BME280;39936;51.058;17.220;2024-01-10T06:37:16;103704.27;;;-14.99;100.00
54022;BME280;39936;51.058;17.220;2024-01-10T06:40:40;103702.27;;;-15.06;100.00
54022;BME280;39936;51.058;17.220;2024-01-10T06:44:08;103698.91;;;-15.12;100.00
54022;BME280;39936;51.058;17.220;2024-01-10T06:47:34;103692.84;;;-15.10;100.00
54022;BME280;39936;51.058;17.220;2024-01-10T06:51:01;103686.77;;;-15.10;100.00
54022;BME280;39936;51.058;17.220;2024-01-10T06:54:19;103688.97;;;-15.14;100.00
54022;BME280;39936;51.058;17.220;2024-01-10T06:58:09;103684.51;;;-15.15;100.00
54022;BME280;39936;51.058;17.220;2024-01-10T07:01:23;103661.00;;;-15.31;100.00
54022;BME280;39936;51.058;17.220;2024-01-10T07:04:51;103672.84;;;-15.22;100.00
54022;BME280;39936;51.058;17.220;2024-01-10T07:08:21;103679.45;;;-15.16;100.00
54022;BME280;39936;51.058;17.220;2024-01-10T07:11:38;103672.13;;;-15.13;100.00
54022;BME280;39936;51.058;17.220;2024-01-10T07:15:23;103677.88;;;-15.11;100.00
54022;BME280;39936;51.058;17.220;2024-01-10T07:18:47;103662.12;;;-15.09;100.00
54022;BME280;39936;51.058;17.220;2024-01-10T07:22:15;103664.48;;;-15.02;100.00
54022;BME280;39936;51.058;17.220;2024-01-10T07:25:43;103660.67;;;-14.89;100.00
54022;BME280;39936;51.058;17.220;2024-01-10T07:29:01;103647.62;;;-14.81;100.00
54022;BME280;39936;51.058;17.220;2024-01-10T07:32:26;103640.98;;;-14.75;100.00
54022;BME280;39936;51.058;17.220;2024-01-10T07:35:54;103635.68;;;-14.69;100.00
54022;BME280;39936;51.058;17.220;2024-01-10T07:39:22;103625.07;;;-14.53;100.00
54022;BME280;39936;51.058;17.220;2024-01-10T07:42:46;103615.71;;;-14.40;100.00
54022;BME280;39936;51.058;17.220;2024-01-10T07:46:11;103601.73;;;-14.46;99.99
54022;BME280;39936;51.058;17.220;2024-01-10T07:49:37;103626.69;;;-14.25;99.85
54022;BME280;39936;51.058;17.220;2024-01-10T07:53:21;103630.31;;;-14.06;99.86
54022;BME280;39936;51.058;17.220;2024-01-10T07:56:43;103642.05;;;-14.10;99.01
54022;BME280;39936;51.058;17.220;2024-01-10T08:00:10;103643.86;;;-14.03;98.77
54022;BME280;39936;51.058;17.220;2024-01-10T08:03:40;103651.91;;;-14.09;98.06
54022;BME280;39936;51.058;17.220;2024-01-10T08:06:57;103642.37;;;-14.16;97.67
54022;BME280;39936;51.058;17.220;2024-01-10T08:10:44;103652.41;;;-14.09;97.65
54022;BME280;39936;51.058;17.220;2024-01-10T08:14:32;103659.02;;;-14.08;97.43
54022;BME280;39936;51.058;17.220;2024-01-10T08:18:18;103664.80;;;-14.21;97.02
54022;BME280;39936;51.058;17.220;2024-01-10T08:21:43;103667.28;;;-14.20;97.32
54022;BME280;39936;51.058;17.220;2024-01-10T08:25:11;103662.26;;;-14.16;97.66
54022;BME280;39936;51.058;17.220;2024-01-10T08:28:54;103630.91;;;-14.28;98.04
54022;BME280;39936;51.058;17.220;2024-01-10T08:32:19;103658.42;;;-14.00;98.04
54022;BME280;39936;51.058;17.220;2024-01-10T08:36:06;103658.27;;;-13.88;97.96
54022;BME280;39936;51.058;17.220;2024-01-10T08:39:28;103668.23;;;-13.65;97.78
54022;BME280;39936;51.058;17.220;2024-01-10T08:43:12;103665.73;;;-13.71;97.15
54022;BME280;39936;51.058;17.220;2024-01-10T08:46:37;103673.12;;;-13.66;96.83
54022;BME280;39936;51.058;17.220;2024-01-10T08:50:03;103639.33;;;-13.73;96.65
54022;BME280;39936;51.058;17.220;2024-01-10T08:53:34;103655.34;;;-13.37;96.89
54022;BME280;39936;51.058;17.220;2024-01-10T08:57:00;103647.70;;;-13.19;96.85
54022;BME280;39936;51.058;17.220;2024-01-10T09:00:46;103645.73;;;-12.95;96.94
54022;BME280;39936;51.058;17.220;2024-01-10T09:04:28;103635.13;;;-12.75;96.91
54022;BME280;39936;51.058;17.220;2024-01-10T09:08:00;103633.34;;;-12.38;97.01
54022;BME280;39936;51.058;17.220;2024-01-10T09:11:52;103634.81;;;-12.05;97.22
54022;BME280;39936;51.058;17.220;2024-01-10T09:16:12;103591.37;;;-11.98;97.17
54022;BME280;39936;51.058;17.220;2024-01-10T09:19:36;103634.80;;;-11.78;95.10
54022;BME280;39936;51.058;17.220;2024-01-10T09:24:06;103637.67;;;-11.69;94.39
54022;BME280;39936;51.058;17.220;2024-01-10T09:27:56;103613.00;;;-11.61;93.56
54022;BME280;39936;51.058;17.220;2024-01-10T09:31:18;103616.03;;;-11.28;93.67
54022;BME280;39936;51.058;17.220;2024-01-10T09:34:44;103609.86;;;-11.03;93.75
54022;BME280;39936;51.058;17.220;2024-01-10T09:38:05;103607.55;;;-10.87;93.40
54022;BME280;39936;51.058;17.220;2024-01-10T09:41:28;103606.95;;;-10.77;92.40
54022;BME280;39936;51.058;17.220;2024-01-10T09:44:55;103613.11;;;-11.09;90.11
54022;BME280;39936;51.058;17.220;2024-01-10T09:48:25;103612.35;;;-11.30;89.40
54022;BME280;39936;51.058;17.220;2024-01-10T09:51:48;103617.60;;;-11.32;89.27
54022;BME280;39936;51.058;17.220;2024-01-10T09:55:16;103614.02;;;-11.35;89.19
54022;BME280;39936;51.058;17.220;2024-01-10T09:58:45;103605.51;;;-11.37;89.17
54022;BME280;39936;51.058;17.220;2024-01-10T10:02:06;103601.41;;;-11.42;88.89
54022;BME280;39936;51.058;17.220;2024-01-10T10:05:32;103597.03;;;-11.24;89.29
54022;BME280;39936;51.058;17.220;2024-01-10T10:09:14;103590.70;;;-11.09;89.59
54022;BME280;39936;51.058;17.220;2024-01-10T10:12:42;103590.25;;;-10.88;89.60
54022;BME280;39936;51.058;17.220;2024-01-10T10:16:11;103583.46;;;-10.81;88.95
54022;BME280;39936;51.058;17.220;2024-01-10T10:20:04;103578.15;;;-10.60;88.85
54022;BME280;39936;51.058;17.220;2024-01-10T10:23:59;103582.85;;;-10.62;88.31
54022;BME280;39936;51.058;17.220;2024-01-10T10:27:37;103555.56;;;-10.64;88.68
54022;BME280;39936;51.058;17.220;2024-01-10T10:30:58;103581.04;;;-10.49;88.35
54022;BME280;39936;51.058;17.220;2024-01-10T10:34:51;103577.58;;;-10.35;88.27
54022;BME280;39936;51.058;17.220;2024-01-10T10:38:34;103563.07;;;-10.32;87.38
54022;BME280;39936;51.058;17.220;2024-01-10T10:42:01;103570.44;;;-10.16;87.44
54022;BME280;39936;51.058;17.220;2024-01-10T10:45:23;103582.52;;;-10.12;86.61
54022;BME280;39936;51.058;17.220;2024-01-10T10:48:43;103583.33;;;-10.07;85.57
54022;BME280;39936;51.058;17.220;2024-01-10T10:52:03;103577.20;;;-9.94;85.45
54022;BME280;39936;51.058;17.220;2024-01-10T10:55:50;103574.54;;;-9.69;85.66
54022;BME280;39936;51.058;17.220;2024-01-10T10:59:26;103573.17;;;-9.71;84.36
54022;BME280;39936;51.058;17.220;2024-01-10T11:02:54;103567.76;;;-9.55;84.07
54022;BME280;39936;51.058;17.220;2024-01-10T11:06:21;103568.03;;;-9.45;83.47
54022;BME280;39936;51.058;17.220;2024-01-10T11:09:52;103564.75;;;-9.39;83.19
54022;BME280;39936;51.058;17.220;2024-01-10T11:28:36;103542.97;;;-8.71;82.96
54022;BME280;39936;51.058;17.220;2024-01-10T11:32:23;103540.86;;;-8.44;83.06
54022;BME280;39936;51.058;17.220;2024-01-10T11:39:42;103528.70;;;-8.31;81.96
54022;BME280;39936;51.058;17.220;2024-01-10T11:43:13;103521.08;;;-8.35;81.24
54022;BME280;39936;51.058;17.220;2024-01-10T11:46:34;103526.60;;;-8.47;80.28
54022;BME280;39936;51.058;17.220;2024-01-10T11:50:02;103519.10;;;-8.45;80.94
54022;BME280;39936;51.058;17.220;2024-01-10T11:53:54;103514.30;;;-8.34;81.18
54022;BME280;39936;51.058;17.220;2024-01-10T11:57:26;103520.88;;;-8.17;81.44
54022;BME280;39936;51.058;17.220;2024-01-10T12:04:44;103510.28;;;-8.02;80.99
54022;BME280;39936;51.058;17.220;2024-01-10T12:12:30;103492.41;;;-7.76;80.62
54022;BME280;39936;51.058;17.220;2024-01-10T12:15:56;103485.80;;;-7.62;80.13
54022;BME280;39936;51.058;17.220;2024-01-10T12:20:04;103482.83;;;-7.50;79.84
54022;BME280;39936;51.058;17.220;2024-01-10T12:23:18;103475.46;;;-7.39;79.19
54022;BME280;39936;51.058;17.220;2024-01-10T12:26:47;103444.92;;;-7.43;79.40
54022;BME280;39936;51.058;17.220;2024-01-10T12:30:30;103472.70;;;-7.15;78.71
54022;BME280;39936;51.058;17.220;2024-01-10T12:33:51;103464.04;;;-6.88;79.14
54022;BME280;39936;51.058;17.220;2024-01-10T12:37:12;103456.52;;;-6.75;78.15
54022;BME280;39936;51.058;17.220;2024-01-10T12:40:39;103456.82;;;-6.76;77.14
54022;BME280;39936;51.058;17.220;2024-01-10T12:44:01;103455.65;;;-6.89;76.17
54022;BME280;39936;51.058;17.220;2024-01-10T12:47:43;103448.02;;;-6.82;76.66
54022;BME280;39936;51.058;17.220;2024-01-10T12:54:40;103416.92;;;-6.85;76.35
54022;BME280;39936;51.058;17.220;2024-01-10T12:58:41;103405.63;;;-6.99;75.91
54022;BME280;39936;51.058;17.220;2024-01-10T13:02:08;103450.15;;;-6.83;75.78
54022;BME280;39936;51.058;17.220;2024-01-10T13:05:51;103419.46;;;-6.95;76.19
54022;BME280;39936;51.058;17.220;2024-01-10T13:09:18;103438.34;;;-6.79;76.02
54022;BME280;39936;51.058;17.220;2024-01-10T13:12:37;103436.37;;;-6.77;76.16
54022;BME280;39936;51.058;17.220;2024-01-10T13:16:03;103436.06;;;-6.72;76.13
54022;BME280;39936;51.058;17.220;2024-01-10T13:19:43;103435.77;;;-6.67;76.36
54022;BME280;39936;51.058;17.220;2024-01-10T13:23:05;103435.87;;;-6.67;75.99
54022;BME280;39936;51.058;17.220;2024-01-10T13:27:06;103435.33;;;-6.67;75.97
54022;BME280;39936;51.058;17.220;2024-01-10T13:30:39;103429.15;;;-6.53;76.36
54022;BME280;39936;51.058;17.220;2024-01-10T13:34:30;103403.92;;;-6.68;75.59
54022;BME280;39936;51.058;17.220;2024-01-10T13:41:46;103425.22;;;-6.49;76.00
54022;BME280;39936;51.058;17.220;2024-01-10T13:45:10;103420.08;;;-6.27;76.37
54022;BME280;39936;51.058;17.220;2024-01-10T13:48:33;103398.78;;;-6.28;76.46
54022;BME280;39936;51.058;17.220;2024-01-10T13:52:00;103414.05;;;-6.22;76.71
54022;BME280;39936;51.058;17.220;2024-01-10T13:55:23;103417.91;;;-6.27;76.70
54022;BME280;39936;51.058;17.220;2024-01-10T13:58:44;103414.05;;;-6.31;76.85
54022;BME280;39936;51.058;17.220;2024-01-10T14:02:31;103413.69;;;-6.30;76.89
54022;BME280;39936;51.058;17.220;2024-01-10T14:05:57;103408.64;;;-6.24;76.58
54022;BME280;39936;51.058;17.220;2024-01-10T14:09:19;103410.62;;;-6.36;76.30
54022;BME280;39936;51.058;17.220;2024-01-10T14:13:04;103398.34;;;-6.28;76.51
54022;BME280;39936;51.058;17.220;2024-01-10T14:16:52;103410.14;;;-6.19;76.35
54022;BME280;39936;51.058;17.220;2024-01-10T14:20:33;103405.42;;;-6.21;75.90
54022;BME280;39936;51.058;17.220;2024-01-10T14:24:52;103409.08;;;-6.40;75.32
54022;BME280;39936;51.058;17.220;2024-01-10T14:28:14;103406.48;;;-6.61;75.73
54022;BME280;39936;51.058;17.220;2024-01-10T14:31:46;103413.91;;;-6.51;75.95
54022;BME280;39936;51.058;17.220;2024-01-10T14:35:12;103412.55;;;-6.49;76.00
54022;BME280;39936;51.058;17.220;2024-01-10T14:39:02;103411.05;;;-6.54;75.86
54022;BME280;39936;51.058;17.220;2024-01-10T14:42:50;103410.35;;;-6.63;76.06
54022;BME280;39936;51.058;17.220;2024-01-10T14:46:09;103419.27;;;-6.59;76.09
54022;BME280;39936;51.058;17.220;2024-01-10T14:49:29;103421.77;;;-6.75;75.95
54022;BME280;39936;51.058;17.220;2024-01-10T14:53:17;103417.62;;;-6.82;75.99
54022;BME280;39936;51.058;17.220;2024-01-10T14:57:10;103394.10;;;-7.03;75.95
54022;BME280;39936;51.058;17.220;2024-01-10T15:00:33;103418.88;;;-6.96;75.95
54022;BME280;39936;51.058;17.220;2024-01-10T15:04:24;103415.78;;;-7.07;75.94
54022;BME280;39936;51.058;17.220;2024-01-10T15:08:08;103375.07;;;-7.46;75.89
54022;BME280;39936;51.058;17.220;2024-01-10T15:11:29;103418.93;;;-7.32;76.01
54022;BME280;39936;51.058;17.220;2024-01-10T15:15:27;103417.65;;;-7.47;76.28
54022;BME280;39936;51.058;17.220;2024-01-10T15:18:54;103405.71;;;-7.59;76.50
54022;BME280;39936;51.058;17.220;2024-01-10T15:22:23;103397.92;;;-7.69;76.64
54022;BME280;39936;51.058;17.220;2024-01-10T15:25:44;103402.05;;;-7.78;76.72
54022;BME280;39936;51.058;17.220;2024-01-10T15:29:28;103412.59;;;-7.86;76.80
54022;BME280;39936;51.058;17.220;2024-01-10T15:33:37;103414.99;;;-8.03;77.01
54022;BME280;39936;51.058;17.220;2024-01-10T15:37:04;103416.76;;;-8.17;77.24
54022;BME280;39936;51.058;17.220;2024-01-10T15:40:19;103415.77;;;-8.35;77.64
54022;BME280;39936;51.058;17.220;2024-01-10T15:44:03;103419.12;;;-8.52;78.26
54022;BME280;39936;51.058;17.220;2024-01-10T15:47:43;103415.84;;;-8.57;78.62
54022;BME280;39936;51.058;17.220;2024-01-10T15:51:01;103407.03;;;-8.62;78.74
54022;BME280;39936;51.058;17.220;2024-01-10T15:54:19;103407.49;;;-8.62;78.84
54022;BME280;39936;51.058;17.220;2024-01-10T15:58:13;103407.77;;;-8.72;79.02
54022;BME280;39936;51.058;17.220;2024-01-10T16:01:31;103412.27;;;-8.81;79.21
54022;BME280;39936;51.058;17.220;2024-01-10T16:04:47;103415.86;;;-8.87;79.30
54022;BME280;39936;51.058;17.220;2024-01-10T16:08:10;103407.63;;;-8.95;79.39
54022;BME280;39936;51.058;17.220;2024-01-10T16:11:31;103405.04;;;-9.04;79.60
54022;BME280;39936;51.058;17.220;2024-01-10T16:15:29;103407.85;;;-9.29;80.98
54022;BME280;39936;51.058;17.220;2024-01-10T16:18:50;103408.72;;;-9.24;81.07
54022;BME280;39936;51.058;17.220;2024-01-10T16:22:18;103410.09;;;-9.20;81.04
54022;BME280;39936;51.058;17.220;2024-01-10T16:26:01;103407.94;;;-9.20;81.02
54022;BME280;39936;51.058;17.220;2024-01-10T16:29:26;103408.48;;;-9.22;80.98
54022;BME280;39936;51.058;17.220;2024-01-10T16:32:53;103398.92;;;-9.33;80.97
54022;BME280;39936;51.058;17.220;2024-01-10T16:36:35;103407.83;;;-9.38;81.21
54022;BME280;39936;51.058;17.220;2024-01-10T16:40:03;103409.91;;;-9.42;81.34
54022;BME280;39936;51.058;17.220;2024-01-10T16:43:47;103400.74;;;-9.47;81.40
54022;BME280;39936;51.058;17.220;2024-01-10T16:47:04;103398.35;;;-9.53;81.58
54022;BME280;39936;51.058;17.220;2024-01-10T16:50:35;103404.75;;;-9.63;81.92
54022;BME280;39936;51.058;17.220;2024-01-10T16:54:03;103391.87;;;-9.72;82.15
54022;BME280;39936;51.058;17.220;2024-01-10T16:57:50;103386.22;;;-9.80;82.50
54022;BME280;39936;51.058;17.220;2024-01-10T17:01:15;103398.01;;;-9.73;82.81
54022;BME280;39936;51.058;17.220;2024-01-10T17:04:46;103397.62;;;-9.81;83.15
54022;BME280;39936;51.058;17.220;2024-01-10T17:08:09;103393.34;;;-9.88;83.52
54022;BME280;39936;51.058;17.220;2024-01-10T17:11:56;103395.27;;;-9.90;83.74
54022;BME280;39936;51.058;17.220;2024-01-10T17:15:15;103386.48;;;-9.90;83.86
54022;BME280;39936;51.058;17.220;2024-01-10T17:19:05;103388.77;;;-9.93;83.92
54022;BME280;39936;51.058;17.220;2024-01-10T17:22:23;103394.85;;;-9.95;84.05
54022;BME280;39936;51.058;17.220;2024-01-10T17:25:58;103390.92;;;-10.04;84.52
54022;BME280;39936;51.058;17.220;2024-01-10T17:29:46;103384.68;;;-10.06;84.84
54022;BME280;39936;51.058;17.220;2024-01-10T17:33:35;103385.20;;;-10.02;84.93
54022;BME280;39936;51.058;17.220;2024-01-10T17:37:00;103382.64;;;-10.08;84.85
54022;BME280;39936;51.058;17.220;2024-01-10T17:41:24;103390.66;;;-10.13;84.88
54022;BME280;39936;51.058;17.220;2024-01-10T17:44:46;103381.27;;;-10.19;85.05
54022;BME280;39936;51.058;17.220;2024-01-10T17:49:01;103375.61;;;-10.21;85.18
54022;BME280;39936;51.058;17.220;2024-01-10T17:52:49;103336.40;;;-10.43;85.28
54022;BME280;39936;51.058;17.220;2024-01-10T17:56:14;103364.77;;;-10.23;85.41
54022;BME280;39936;51.058;17.220;2024-01-10T18:00:00;103354.12;;;-10.31;85.43
54022;BME280;39936;51.058;17.220;2024-01-10T18:04:12;103357.23;;;-10.30;85.45
54022;BME280;39936;51.058;17.220;2024-01-10T18:08:28;103358.66;;;-10.50;86.55
54022;BME280;39936;51.058;17.220;2024-01-10T18:11:50;103351.49;;;-10.53;86.95
54022;BME280;39936;51.058;17.220;2024-01-10T18:15:39;103354.39;;;-10.45;87.00
54022;BME280;39936;51.058;17.220;2024-01-10T18:19:50;103350.09;;;-10.46;87.08
54022;BME280;39936;51.058;17.220;2024-01-10T18:23:11;103344.45;;;-10.54;87.18
54022;BME280;39936;51.058;17.220;2024-01-10T18:26:49;103350.28;;;-10.54;87.38
54022;BME280;39936;51.058;17.220;2024-01-10T18:30:16;103350.63;;;-10.55;87.58
54022;BME280;39936;51.058;17.220;2024-01-10T18:34:29;103355.23;;;-10.60;87.77
54022;BME280;39936;51.058;17.220;2024-01-10T18:38:19;103361.96;;;-10.69;88.09
54022;BME280;39936;51.058;17.220;2024-01-10T18:41:49;103360.95;;;-10.83;88.42
54022;BME280;39936;51.058;17.220;2024-01-10T18:46:23;103359.34;;;-10.92;89.16
54022;BME280;39936;51.058;17.220;2024-01-10T18:49:44;103364.19;;;-11.05;93.16
54022;BME280;39936;51.058;17.220;2024-01-10T18:53:07;103329.56;;;-11.22;94.84